createdAt,value
2023-01-19T00:01:08.189Z,96846.94
2023-01-19T00:03:37.077Z,96848.59
2023-01-19T00:06:08.887Z,96852.91
2023-01-19T00:08:37.703Z,96852.28
2023-01-19T00:11:06.436Z,96869.25
2023-01-19T00:13:35.177Z,96853.16
2023-01-19T00:16:03.890Z,96858.72
2023-01-19T00:18:32.546Z,96868.41
2023-01-19T00:21:01.105Z,96864.69
2023-01-19T00:23:31.263Z,96859.34
2023-01-19T00:25:59.785Z,96860.16
2023-01-19T00:28:28.448Z,96860.97
2023-01-19T00:30:57.175Z,96860.97
2023-01-19T00:33:25.903Z,96863.88
2023-01-19T00:35:55.045Z,96873.38
2023-01-19T00:38:23.955Z,96866.34
2023-01-19T00:40:53.934Z,96870.88
2023-01-19T00:43:21.631Z,96871.69
2023-01-19T00:45:50.404Z,96872.75
2023-01-19T00:48:19.186Z,96867.38
2023-01-19T00:50:47.970Z,96860.16
2023-01-19T00:53:16.806Z,96859.34
2023-01-19T00:55:45.474Z,96859.34
2023-01-19T00:58:15.672Z,96857.66
2023-01-19T01:00:44.917Z,96853.34
2023-01-19T01:03:16.672Z,96850.66
2023-01-19T01:05:45.464Z,96846.94
2023-01-19T01:08:14.151Z,96845.09
2023-01-19T01:10:42.725Z,96835.38
2023-01-19T01:13:22.468Z,96846.13
2023-01-19T01:15:54.232Z,96830.84
2023-01-19T01:18:23.232Z,96842.41
2023-01-19T01:20:52.729Z,96838.06
2023-01-19T01:23:23.236Z,96834.56
2023-01-19T01:25:51.967Z,96829.19
2023-01-19T01:28:20.594Z,96834.56
2023-01-19T01:30:49.177Z,96836.44
2023-01-19T01:33:40.472Z,96843.44
2023-01-19T01:36:09.541Z,96843.66
2023-01-19T01:38:38.401Z,96850.66
2023-01-19T01:41:07.007Z,96850.84
2023-01-19T01:43:49.697Z,96850.03
2023-01-19T01:46:20.158Z,96841.97
2023-01-19T01:48:52.372Z,96842.81
2023-01-19T01:51:25.480Z,96840.97
2023-01-19T01:54:14.371Z,96835.59
2023-01-19T01:56:45.816Z,96839.94
2023-01-19T01:59:25.863Z,96849.84
2023-01-19T02:02:12.173Z,96854.16
2023-01-19T02:04:45.652Z,96861.59
2023-01-19T02:07:33.199Z,96862.44
2023-01-19T02:10:19.151Z,96860.75
2023-01-19T02:13:05.071Z,96863.44
2023-01-19T02:15:33.804Z,96869.63
2023-01-19T02:18:02.517Z,96868.81
2023-01-19T02:20:32.692Z,96875.00
2023-01-19T02:23:03.319Z,96869.63
2023-01-19T02:25:33.984Z,96875.00
2023-01-19T02:28:02.594Z,96866.13
2023-01-19T02:30:31.457Z,96879.53
2023-01-19T02:33:00.433Z,96878.72
2023-01-19T02:35:29.228Z,96877.91
2023-01-19T02:37:57.911Z,96880.59
2023-01-19T02:40:27.200Z,96886.78
2023-01-19T02:42:58.903Z,96877.69
2023-01-19T02:45:28.018Z,96878.53
2023-01-19T02:47:57.253Z,96879.53
2023-01-19T02:50:46.262Z,96882.22
2023-01-19T02:53:51.440Z,96884.09
2023-01-19T02:57:01.270Z,96887.59
2023-01-19T02:59:41.263Z,96882.22
2023-01-19T03:02:27.789Z,96890.28
2023-01-19T03:05:05.149Z,96886.78
2023-01-19T03:07:43.474Z,96890.28
2023-01-19T03:10:17.098Z,96888.63
2023-01-19T03:12:48.217Z,96886.56
2023-01-19T03:15:21.029Z,96876.03
2023-01-19T03:17:51.115Z,96881.41
2023-01-19T03:20:24.079Z,96887.00
2023-01-19T03:22:55.962Z,96891.31
2023-01-19T03:25:24.721Z,96889.47
2023-01-19T03:27:54.929Z,96886.78
2023-01-19T03:30:28.510Z,96878.94
2023-01-19T03:32:59.950Z,96893.19
2023-01-19T03:35:30.773Z,96890.28
2023-01-19T03:37:59.529Z,96887.00
2023-01-19T03:40:28.747Z,96879.78
2023-01-19T03:42:58.310Z,96890.69
2023-01-19T03:45:30.916Z,96889.69
2023-01-19T03:47:59.998Z,96898.75
2023-01-19T03:50:30.226Z,96898.56
2023-01-19T03:53:03.762Z,96901.41
2023-01-19T03:55:32.814Z,96902.25
2023-01-19T03:58:01.477Z,96901.41
2023-01-19T04:00:31.640Z,96907.59
2023-01-19T04:03:00.707Z,96900.41
2023-01-19T04:05:29.763Z,96906.78
2023-01-19T04:07:58.327Z,96913.81
2023-01-19T04:10:27.202Z,96916.50
2023-01-19T04:12:59.609Z,96919.19
2023-01-19T04:15:30.269Z,96917.53
2023-01-19T04:17:59.395Z,96913.81
2023-01-19T04:20:28.399Z,96914.84
2023-01-19T04:23:00.041Z,96916.69
2023-01-19T04:25:29.165Z,96922.88
2023-01-19T04:27:58.434Z,96927.44
2023-01-19T04:30:27.553Z,96929.91
2023-01-19T04:32:58.824Z,96927.44
2023-01-19T04:35:27.717Z,96940.84
2023-01-19T04:37:56.323Z,96937.97
2023-01-19T04:40:25.261Z,96944.34
2023-01-19T04:42:54.473Z,96938.97
2023-01-19T04:45:23.225Z,96941.66
2023-01-19T04:47:52.396Z,96938.97
2023-01-19T04:50:22.745Z,96946.03
2023-01-19T04:52:51.297Z,96949.72
2023-01-19T04:55:20.141Z,96965.00
2023-01-19T04:57:48.772Z,96956.13
2023-01-19T05:00:19.445Z,96959.81
2023-01-19T05:02:48.176Z,96964.16
2023-01-19T05:05:17.629Z,96973.22
2023-01-19T05:07:47.548Z,96980.25
2023-01-19T05:10:16.137Z,96975.72
2023-01-19T05:12:44.899Z,96977.59
2023-01-19T05:15:13.802Z,96980.25
2023-01-19T05:17:42.375Z,96982.72
2023-01-19T05:20:15.847Z,96980.03
2023-01-19T05:22:51.558Z,96972.84
2023-01-19T05:25:20.234Z,96962.31
2023-01-19T05:27:48.935Z,96967.47
2023-01-19T05:30:18.289Z,96960.44
2023-01-19T05:32:46.922Z,96958.38
2023-01-19T05:35:18.249Z,96966.84
2023-01-19T05:37:50.866Z,96959.81
2023-01-19T05:40:19.605Z,96955.66
2023-01-19T05:42:48.150Z,96953.19
2023-01-19T05:45:17.132Z,96945.16
2023-01-19T05:47:45.739Z,96939.78
2023-01-19T05:50:14.451Z,96943.47
2023-01-19T05:52:43.112Z,96939.16
2023-01-19T05:55:15.465Z,96943.09
2023-01-19T05:57:44.328Z,96952.41
2023-01-19T06:00:14.731Z,96938.16
2023-01-19T06:02:43.622Z,96949.53
2023-01-19T06:05:12.416Z,96945.59
2023-01-19T06:07:40.930Z,96950.13
2023-01-19T06:10:12.504Z,96948.69
2023-01-19T06:12:41.685Z,96943.34
2023-01-19T06:15:11.098Z,96947.66
2023-01-19T06:17:39.699Z,96957.78
2023-01-19T06:20:09.575Z,96958.38
2023-01-19T06:22:38.101Z,96961.28
2023-01-19T06:25:08.120Z,96963.16
2023-01-19T06:27:39.891Z,96966.03
2023-01-19T06:30:10.394Z,96971.00
2023-01-19T06:32:39.237Z,96991.84
2023-01-19T06:35:08.867Z,96989.75
2023-01-19T06:37:37.502Z,96980.28
2023-01-19T06:40:07.874Z,96983.38
2023-01-19T06:42:37.931Z,96990.56
2023-01-19T06:45:09.223Z,96999.03
2023-01-19T06:47:37.892Z,97007.13
2023-01-19T06:50:07.935Z,97015.34
2023-01-19T06:52:42.590Z,97031.69
2023-01-19T06:55:12.162Z,97041.38
2023-01-19T06:57:42.467Z,97043.63
2023-01-19T07:00:12.460Z,97047.56
2023-01-19T07:02:43.643Z,97056.63
2023-01-19T07:05:14.531Z,97065.72
2023-01-19T07:07:44.935Z,97070.25
2023-01-19T07:10:15.793Z,97079.34
2023-01-19T07:12:47.459Z,97070.69
2023-01-19T07:15:16.999Z,97074.38
2023-01-19T07:17:45.766Z,97072.53
2023-01-19T07:20:15.190Z,97074.38
2023-01-19T07:22:45.847Z,97082.84
2023-01-19T07:25:14.732Z,97079.56
2023-01-19T07:27:45.054Z,97085.75
2023-01-19T07:30:17.079Z,97094.41
2023-01-19T07:32:45.699Z,97102.44
2023-01-19T07:35:14.625Z,97099.97
2023-01-19T07:37:43.662Z,97096.25
2023-01-19T07:40:13.854Z,97086.56
2023-01-19T07:42:48.781Z,97095.44
2023-01-19T07:45:20.605Z,97079.34
2023-01-19T07:47:50.101Z,97084.72
2023-01-19T07:50:21.484Z,97089.63
2023-01-19T07:52:51.936Z,97086.75
2023-01-19T07:55:20.885Z,97082.22
2023-01-19T07:57:51.088Z,97091.31
2023-01-19T08:00:24.970Z,97096.66
2023-01-19T08:02:53.928Z,97105.53
2023-01-19T08:05:23.605Z,97102.84
2023-01-19T08:07:54.165Z,97120.59
2023-01-19T08:10:25.940Z,97122.28
2023-01-19T08:12:54.767Z,97112.97
2023-01-19T08:15:25.068Z,97122.69
2023-01-19T08:17:58.541Z,97122.28
2023-01-19T08:20:27.547Z,97123.28
2023-01-19T08:23:00.297Z,97123.91
2023-01-19T08:25:33.745Z,97116.50
2023-01-19T08:28:02.340Z,97128.88
2023-01-19T08:30:32.614Z,97124.34
2023-01-19T08:33:05.081Z,97119.00
2023-01-19T08:35:34.201Z,97119.19
2023-01-19T08:38:02.821Z,97124.75
2023-01-19T08:40:33.995Z,97122.91
2023-01-19T08:43:05.815Z,97107.81
2023-01-19T08:45:35.962Z,97111.31
2023-01-19T08:48:06.318Z,97119.00
2023-01-19T08:50:35.474Z,97121.69
2023-01-19T08:53:06.592Z,97111.13
2023-01-19T08:55:36.355Z,97121.88
2023-01-19T08:58:06.038Z,97126.41
2023-01-19T09:00:38.177Z,97130.97
2023-01-19T09:03:07.384Z,97135.47
2023-01-19T09:05:38.868Z,97131.97
2023-01-19T09:08:09.815Z,97147.06
2023-01-19T09:10:39.228Z,97163.97
2023-01-19T09:13:10.924Z,97161.47
2023-01-19T09:15:41.096Z,97152.59
2023-01-19T09:18:13.681Z,97156.13
2023-01-19T09:20:43.032Z,97167.06
2023-01-19T09:23:11.884Z,97151.78
2023-01-19T09:25:40.574Z,97168.72
2023-01-19T09:28:10.313Z,97187.50
2023-01-19T09:30:41.372Z,97179.63
2023-01-19T09:33:11.812Z,97172.44
2023-01-19T09:35:40.811Z,97160.84
2023-01-19T09:38:10.327Z,97159.84
2023-01-19T09:40:43.135Z,97157.16
2023-01-19T09:43:18.126Z,97154.47
2023-01-19T09:45:50.914Z,97151.78
2023-01-19T09:48:35.734Z,97149.09
2023-01-19T09:51:07.735Z,97151.78
2023-01-19T09:53:46.855Z,97157.16
2023-01-19T09:56:15.808Z,97166.22
2023-01-19T09:58:44.450Z,97149.09
2023-01-19T10:01:25.408Z,97131.34
2023-01-19T10:04:03.963Z,97129.91
2023-01-19T10:06:32.604Z,97131.97
2023-01-19T10:09:05.398Z,97133.63
2023-01-19T10:11:51.511Z,97125.16
2023-01-19T10:14:23.803Z,97134.66
2023-01-19T10:16:59.258Z,97133.00
2023-01-19T10:19:30.740Z,97135.69
2023-01-19T10:22:01.154Z,97125.78
2023-01-19T10:24:33.260Z,97123.09
2023-01-19T10:27:01.906Z,97129.50
2023-01-19T10:29:34.816Z,97119.78
2023-01-19T10:32:08.286Z,97119.59
2023-01-19T10:34:37.142Z,97117.91
2023-01-19T10:37:11.839Z,97116.09
2023-01-19T10:39:40.644Z,97115.44
2023-01-19T10:42:11.959Z,97123.28
2023-01-19T10:44:40.732Z,97123.91
2023-01-19T10:47:16.732Z,97120.59
2023-01-19T10:49:46.102Z,97123.28
2023-01-19T10:52:23.052Z,97124.13
2023-01-19T10:54:51.808Z,97116.09
2023-01-19T10:57:28.073Z,97108.22
2023-01-19T10:59:57.091Z,97111.72
2023-01-19T11:02:27.905Z,97117.31
2023-01-19T11:04:57.877Z,97107.19
2023-01-19T11:07:30.914Z,97108.03
2023-01-19T11:10:24.123Z,97108.22
2023-01-19T11:13:12.945Z,97104.72
2023-01-19T11:15:44.032Z,97105.34
2023-01-19T11:18:25.243Z,97106.59
2023-01-19T11:20:55.097Z,97096.44
2023-01-19T11:23:27.396Z,97096.44
2023-01-19T11:25:58.458Z,97085.72
2023-01-19T11:28:31.306Z,97078.53
2023-01-19T11:31:01.309Z,97081.41
2023-01-19T11:33:37.218Z,97093.78
2023-01-19T11:36:07.978Z,97093.78
2023-01-19T11:38:43.551Z,97096.44
2023-01-19T11:41:20.846Z,97098.31
2023-01-19T11:43:51.390Z,97092.13
2023-01-19T11:46:20.409Z,97093.78
2023-01-19T11:48:57.427Z,97099.97
2023-01-19T11:51:27.020Z,97101.81
2023-01-19T11:53:55.664Z,97101.81
2023-01-19T11:56:25.546Z,97091.31
2023-01-19T11:58:55.521Z,97092.31
2023-01-19T12:01:25.727Z,97086.75
2023-01-19T12:04:00.822Z,97086.13
2023-01-19T12:06:32.812Z,97087.59
2023-01-19T12:09:04.242Z,97098.31
2023-01-19T12:11:34.402Z,97099.34
2023-01-19T12:14:03.359Z,97096.84
2023-01-19T12:16:33.701Z,97093.34
2023-01-19T12:19:06.346Z,97100.38
2023-01-19T12:21:35.687Z,97092.31
2023-01-19T12:24:11.190Z,97101.41
2023-01-19T12:26:42.106Z,97097.69
2023-01-19T12:29:14.547Z,97095.00
2023-01-19T12:31:44.160Z,97095.00
2023-01-19T12:34:44.317Z,97097.91
2023-01-19T12:37:34.984Z,97101.41
2023-01-19T12:40:06.884Z,97101.22
2023-01-19T12:42:35.565Z,97096.84
2023-01-19T12:45:09.299Z,97090.47
2023-01-19T12:47:38.343Z,97107.59
2023-01-19T12:50:12.883Z,97104.72
2023-01-19T12:52:48.089Z,97106.13
2023-01-19T12:55:23.469Z,97103.28
2023-01-19T12:57:59.768Z,97095.00
2023-01-19T13:00:37.683Z,97092.53
2023-01-19T13:03:40.629Z,97102.84
2023-01-19T13:06:10.731Z,97102.22
2023-01-19T13:08:59.610Z,97101.22
2023-01-19T13:11:33.355Z,97105.53
2023-01-19T13:14:36.235Z,97109.88
2023-01-19T13:17:23.437Z,97112.78
2023-01-19T13:20:20.184Z,97118.97
2023-01-19T13:23:26.421Z,97124.50
2023-01-19T13:26:14.160Z,97125.56
2023-01-19T13:28:44.456Z,97129.88
2023-01-19T13:31:13.753Z,97130.09
2023-01-19T13:33:50.021Z,97129.06
2023-01-19T13:36:28.795Z,97130.09
2023-01-19T13:38:59.326Z,97143.50
2023-01-19T13:41:30.722Z,97142.69
2023-01-19T13:44:03.235Z,97137.31
2023-01-19T13:46:33.619Z,97144.56
2023-01-19T13:49:05.473Z,97140.19
2023-01-19T13:51:34.274Z,97149.91
2023-01-19T13:54:05.760Z,97146.38
2023-01-19T13:56:34.504Z,97166.00
2023-01-19T13:59:13.617Z,97156.94
2023-01-19T14:01:46.222Z,97160.66
2023-01-19T14:04:29.931Z,97156.09
2023-01-19T14:07:00.038Z,97170.34
2023-01-19T14:09:30.014Z,97169.31
2023-01-19T14:12:22.551Z,97176.75
2023-01-19T14:14:51.099Z,97171.38
2023-01-19T14:17:26.487Z,97175.88
2023-01-19T14:19:56.115Z,97180.44
2023-01-19T14:22:40.229Z,97178.78
2023-01-19T14:25:30.969Z,97181.25
2023-01-19T14:28:31.152Z,97184.16
2023-01-19T14:31:00.821Z,97178.78
2023-01-19T14:33:37.499Z,97179.81
2023-01-19T14:36:30.327Z,97183.13
2023-01-19T14:39:01.147Z,97178.56
2023-01-19T14:41:38.172Z,97184.38
2023-01-19T14:44:11.027Z,97187.47
2023-01-19T14:46:39.771Z,97187.66
2023-01-19T14:49:09.932Z,97194.88
2023-01-19T14:51:38.474Z,97187.03
2023-01-19T14:54:07.343Z,97190.53
2023-01-19T14:56:39.649Z,97185.16
2023-01-19T14:59:11.044Z,97192.41
2023-01-19T15:01:39.887Z,97192.41
2023-01-19T15:04:08.742Z,97193.41
2023-01-19T15:06:39.748Z,97190.53
2023-01-19T15:09:10.095Z,97192.41
2023-01-19T15:11:40.171Z,97195.06
2023-01-19T15:14:10.663Z,97190.72
2023-01-19T15:16:39.373Z,97201.25
2023-01-19T15:19:09.730Z,97193.81
2023-01-19T15:21:42.220Z,97197.09
2023-01-19T15:24:11.665Z,97189.53
2023-01-19T15:26:43.133Z,97195.91
2023-01-19T15:29:24.408Z,97196.91
2023-01-19T15:31:53.541Z,97196.91
2023-01-19T15:34:22.204Z,97205.81
2023-01-19T15:36:50.996Z,97203.94
2023-01-19T15:39:19.618Z,97204.78
2023-01-19T15:41:49.568Z,97204.94
2023-01-19T15:44:18.273Z,97197.75
2023-01-19T15:46:47.055Z,97203.94
2023-01-19T15:49:15.678Z,97201.06
2023-01-19T15:51:44.361Z,97214.50
2023-01-19T15:54:15.273Z,97210.78
2023-01-19T15:56:43.954Z,97208.31
2023-01-19T15:59:13.932Z,97211.00
2023-01-19T16:01:42.885Z,97213.44
2023-01-19T16:04:12.174Z,97216.34
2023-01-19T16:06:40.893Z,97215.31
2023-01-19T16:09:09.456Z,97222.28
2023-01-19T16:11:38.841Z,97216.72
2023-01-19T16:14:07.535Z,97217.72
2023-01-19T16:16:37.604Z,97226.25
2023-01-19T16:19:06.173Z,97228.31
2023-01-19T16:21:34.812Z,97232.06
2023-01-19T16:24:03.460Z,97239.88
2023-01-19T16:26:34.444Z,97243.84
2023-01-19T16:29:07.978Z,97235.97
2023-01-19T16:31:38.342Z,97240.34
2023-01-19T16:34:07.026Z,97241.16
2023-01-19T16:36:37.096Z,97246.72
2023-01-19T16:39:06.848Z,97236.38
2023-01-19T16:41:35.763Z,97237.81
2023-01-19T16:44:04.689Z,97244.63
2023-01-19T16:46:35.285Z,97255.16
2023-01-19T16:49:06.391Z,97243.81
2023-01-19T16:51:35.078Z,97249.59
2023-01-19T16:54:03.795Z,97246.94
2023-01-19T16:56:32.612Z,97245.06
2023-01-19T16:59:01.249Z,97251.22
2023-01-19T17:01:30.431Z,97250.00
2023-01-19T17:03:59.055Z,97254.75
2023-01-19T17:06:30.278Z,97255.16
2023-01-19T17:08:59.363Z,97260.75
2023-01-19T17:11:30.403Z,97248.16
2023-01-19T17:14:01.177Z,97258.25
2023-01-19T17:16:31.111Z,97259.91
2023-01-19T17:19:01.084Z,97257.25
2023-01-19T17:21:31.182Z,97253.50
2023-01-19T17:24:00.197Z,97257.84
2023-01-19T17:26:31.095Z,97263.22
2023-01-19T17:29:00.775Z,97254.16
2023-01-19T17:31:29.958Z,97255.97
2023-01-19T17:33:58.801Z,97257.84
2023-01-19T17:36:28.213Z,97259.53
2023-01-19T17:38:59.279Z,97266.94
2023-01-19T17:41:29.473Z,97255.41
2023-01-19T17:43:58.412Z,97272.53
2023-01-19T17:46:28.387Z,97266.13
2023-01-19T17:48:58.031Z,97275.22
2023-01-19T17:51:26.852Z,97275.00
2023-01-19T17:53:57.196Z,97267.59
2023-01-19T17:56:28.473Z,97269.25
2023-01-19T17:58:57.253Z,97271.94
2023-01-19T18:01:27.575Z,97272.97
2023-01-19T18:03:56.274Z,97270.50
2023-01-19T18:06:25.090Z,97268.41
2023-01-19T18:08:54.278Z,97279.75
2023-01-19T18:11:24.173Z,97279.16
2023-01-19T18:13:52.966Z,97277.25
2023-01-19T18:16:23.441Z,97282.00
2023-01-19T18:18:53.731Z,97289.81
2023-01-19T18:21:22.803Z,97287.75
2023-01-19T18:23:51.522Z,97293.94
2023-01-19T18:26:21.776Z,97286.09
2023-01-19T18:28:54.007Z,97287.56
2023-01-19T18:31:22.652Z,97296.44
2023-01-19T18:33:51.371Z,97292.13
2023-01-19T18:36:20.340Z,97294.81
2023-01-19T18:38:49.705Z,97291.06
2023-01-19T18:41:20.523Z,97297.25
2023-01-19T18:43:49.194Z,97295.63
2023-01-19T18:46:21.289Z,97289.44
2023-01-19T18:48:50.031Z,97306.34
2023-01-19T18:51:18.800Z,97302.00
2023-01-19T18:53:47.573Z,97307.56
2023-01-19T18:56:16.748Z,97303.22
2023-01-19T18:58:45.659Z,97305.72
2023-01-19T19:01:22.388Z,97309.78
2023-01-19T19:03:51.269Z,97316.63
2023-01-19T19:06:20.945Z,97317.25
2023-01-19T19:08:50.480Z,97325.31
2023-01-19T19:11:19.524Z,97323.66
2023-01-19T19:13:52.025Z,97325.31
2023-01-19T19:16:22.205Z,97336.88
2023-01-19T19:18:50.940Z,97336.59
2023-01-19T19:21:20.803Z,97340.78
2023-01-19T19:23:52.400Z,97346.78
2023-01-19T19:26:21.190Z,97344.09
2023-01-19T19:28:49.879Z,97350.28
2023-01-19T19:31:20.681Z,97353.81
2023-01-19T19:33:51.302Z,97360.19
2023-01-19T19:36:20.561Z,97356.69
2023-01-19T19:38:49.403Z,97365.56
2023-01-19T19:41:22.969Z,97369.91
2023-01-19T19:43:51.914Z,97368.88
2023-01-19T19:46:21.284Z,97370.75
2023-01-19T19:48:51.379Z,97379.63
2023-01-19T19:51:22.651Z,97387.47
2023-01-19T19:53:51.894Z,97376.94
2023-01-19T19:56:22.063Z,97375.50
2023-01-19T19:58:50.873Z,97379.72
2023-01-19T20:01:20.560Z,97386.09
2023-01-19T20:03:51.010Z,97389.72
2023-01-19T20:06:21.405Z,97392.22
2023-01-19T20:08:50.678Z,97392.81
2023-01-19T20:11:21.022Z,97397.38
2023-01-19T20:13:50.909Z,97398.41
2023-01-19T20:16:21.420Z,97406.44
2023-01-19T20:18:54.319Z,97405.22
2023-01-19T20:21:26.338Z,97423.63
2023-01-19T20:23:58.102Z,97416.78
2023-01-19T20:26:28.474Z,97415.16
2023-01-19T20:29:00.072Z,97424.19
2023-01-19T20:31:30.615Z,97419.88
2023-01-19T20:34:02.999Z,97421.50
2023-01-19T20:36:31.866Z,97430.59
2023-01-19T20:39:00.676Z,97430.59
2023-01-19T20:41:29.246Z,97431.63
2023-01-19T20:43:57.939Z,97431.63
2023-01-19T20:46:26.751Z,97446.88
2023-01-19T20:48:55.296Z,97447.72
2023-01-19T20:51:26.893Z,97457.63
2023-01-19T20:53:55.540Z,97454.94
2023-01-19T20:56:24.131Z,97452.06
2023-01-19T20:58:52.692Z,97468.16
2023-01-19T21:01:23.528Z,97457.44
2023-01-19T21:03:52.181Z,97459.47
2023-01-19T21:06:21.202Z,97458.47
2023-01-19T21:08:51.269Z,97454.94
2023-01-19T21:11:21.101Z,97452.47
2023-01-19T21:13:50.761Z,97456.78
2023-01-19T21:16:19.390Z,97453.53
2023-01-19T21:18:47.956Z,97458.06
2023-01-19T21:21:29.469Z,97456.22
2023-01-19T21:24:00.511Z,97463.44
2023-01-19T21:26:30.309Z,97462.41
2023-01-19T21:28:59.125Z,97464.44
2023-01-19T21:31:28.435Z,97473.16
2023-01-19T21:33:58.631Z,97471.66
2023-01-19T21:36:27.391Z,97473.53
2023-01-19T21:39:00.655Z,97470.84
2023-01-19T21:41:31.130Z,97476.22
2023-01-19T21:44:01.216Z,97480.38
2023-01-19T21:46:30.586Z,97485.47
2023-01-19T21:48:59.914Z,97494.59
2023-01-19T21:51:28.654Z,97487.97
2023-01-19T21:53:59.821Z,97494.34
2023-01-19T21:56:30.050Z,97510.88
2023-01-19T21:59:02.204Z,97506.56
2023-01-19T22:01:30.938Z,97512.56
2023-01-19T22:03:59.955Z,97511.75
2023-01-19T22:06:29.323Z,97507.38
2023-01-19T22:08:58.610Z,97510.28
2023-01-19T22:11:27.586Z,97509.44
2023-01-19T22:13:59.829Z,97517.50
2023-01-19T22:16:28.671Z,97506.13
2023-01-19T22:18:59.611Z,97515.63
2023-01-19T22:21:30.026Z,97518.31
2023-01-19T22:24:00.379Z,97520.19
2023-01-19T22:26:29.784Z,97523.88
2023-01-19T22:29:01.245Z,97525.34
2023-01-19T22:31:30.687Z,97528.22
2023-01-19T22:33:59.558Z,97525.53
2023-01-19T22:36:29.727Z,97520.34
2023-01-19T22:38:59.300Z,97531.28
2023-01-19T22:41:29.256Z,97522.88
2023-01-19T22:44:00.461Z,97529.22
2023-01-19T22:46:30.754Z,97531.09
2023-01-19T22:48:59.894Z,97524.06
2023-01-19T22:51:29.072Z,97526.38
2023-01-19T22:53:57.715Z,97530.25
2023-01-19T22:56:27.590Z,97533.94
2023-01-19T22:58:56.213Z,97533.13
2023-01-19T23:01:28.077Z,97533.94
2023-01-19T23:03:57.158Z,97542.00
2023-01-19T23:06:27.032Z,97550.06
2023-01-19T23:08:57.055Z,97551.91
2023-01-19T23:11:29.514Z,97546.38
2023-01-19T23:13:59.067Z,97542.00
2023-01-19T23:16:29.288Z,97534.81
2023-01-19T23:18:59.040Z,97536.63
2023-01-19T23:21:29.194Z,97539.50
2023-01-19T23:24:00.407Z,97541.19
2023-01-19T23:26:30.856Z,97540.50
2023-01-19T23:29:00.910Z,97541.34
2023-01-19T23:31:31.874Z,97545.69
2023-01-19T23:34:01.707Z,97548.38
2023-01-19T23:36:32.310Z,97560.13
2023-01-19T23:39:02.084Z,97567.31
2023-01-19T23:41:32.458Z,97569.19
2023-01-19T23:44:01.273Z,97580.75
2023-01-19T23:46:31.689Z,97572.69
2023-01-19T23:49:00.602Z,97572.38
2023-01-19T23:51:30.685Z,97573.53
2023-01-19T23:53:59.455Z,97580.75
2023-01-19T23:56:29.451Z,97575.38
2023-01-19T23:58:59.489Z,97574.56
